createdAt,value
2019-02-25T00:02:27.898Z,1.43
2019-02-25T00:04:59.125Z,1.40
2019-02-25T00:07:29.546Z,1.41
2019-02-25T00:09:59.982Z,1.45
2019-02-25T00:12:30.217Z,1.42
2019-02-25T00:15:01.700Z,1.40
2019-02-25T00:17:34.647Z,1.33
2019-02-25T00:20:08.965Z,1.29
2019-02-25T00:22:40.913Z,1.30
2019-02-25T00:25:11.588Z,1.25
2019-02-25T00:27:43.661Z,1.21
2019-02-25T00:30:14.654Z,1.22
2019-02-25T00:32:45.964Z,1.13
2019-02-25T00:35:22.538Z,1.16
2019-02-25T00:37:55.083Z,1.08
2019-02-25T00:40:27.529Z,1.01
2019-02-25T00:42:57.662Z,1.01
2019-02-25T00:45:28.420Z,0.92
2019-02-25T00:48:01.525Z,0.87
2019-02-25T00:50:31.846Z,0.87
2019-02-25T00:53:04.931Z,0.90
2019-02-25T00:55:36.968Z,0.86
2019-02-25T00:58:10.192Z,0.89
2019-02-25T01:00:40.859Z,0.92
2019-02-25T01:03:12.299Z,0.87
2019-02-25T01:05:43.867Z,0.84
2019-02-25T01:08:16.803Z,0.83
2019-02-25T01:10:47.358Z,0.82
2019-02-25T01:13:19.431Z,0.81
2019-02-25T01:15:49.861Z,0.88
2019-02-25T01:18:20.315Z,0.88
2019-02-25T01:20:50.477Z,0.86
2019-02-25T01:23:22.586Z,0.75
2019-02-25T01:25:54.664Z,0.71
2019-02-25T01:28:25.030Z,0.66
2019-02-25T01:30:56.240Z,0.75
2019-02-25T01:33:28.811Z,0.69
2019-02-25T01:36:00.375Z,0.64
2019-02-25T01:38:32.609Z,0.66
2019-02-25T01:41:02.975Z,0.75
2019-02-25T01:43:33.706Z,0.67
2019-02-25T01:46:03.942Z,0.67
2019-02-25T01:48:34.860Z,0.62
2019-02-25T01:51:05.165Z,0.60
2019-02-25T01:53:35.542Z,0.61
2019-02-25T01:56:07.807Z,0.65
2019-02-25T01:58:41.000Z,0.64
2019-02-25T02:01:11.382Z,0.62
2019-02-25T02:03:42.917Z,0.51
2019-02-25T02:06:15.462Z,0.55
2019-02-25T02:08:45.793Z,0.67
2019-02-25T02:11:17.843Z,0.57
2019-02-25T02:13:49.497Z,0.54
2019-02-25T02:16:20.051Z,0.47
2019-02-25T02:18:52.329Z,0.45
2019-02-25T02:21:22.760Z,0.42
2019-02-25T02:23:55.460Z,0.44
2019-02-25T02:26:25.806Z,0.41
2019-02-25T02:28:57.327Z,0.42
2019-02-25T02:31:28.584Z,0.49
2019-02-25T02:33:59.737Z,0.44
2019-02-25T02:36:30.499Z,0.41
2019-02-25T02:39:00.938Z,0.38
2019-02-25T02:42:20.137Z,0.40
2019-02-25T02:45:05.302Z,0.41
2019-02-25T02:48:06.854Z,0.36
2019-02-25T02:50:37.066Z,0.40
2019-02-25T02:53:07.412Z,0.36
2019-02-25T02:55:37.780Z,0.33
2019-02-25T02:58:07.861Z,0.33
2019-02-25T03:00:39.804Z,0.30
2019-02-25T03:03:10.286Z,0.26
2019-02-25T03:05:41.594Z,0.29
2019-02-25T03:08:12.936Z,0.33
2019-02-25T03:10:43.387Z,0.40
2019-02-25T03:13:14.448Z,0.35
2019-02-25T03:15:44.957Z,0.23
2019-02-25T03:18:15.398Z,0.28
2019-02-25T03:20:48.784Z,0.28
2019-02-25T03:23:19.112Z,0.28
2019-02-25T03:25:50.568Z,0.29
2019-02-25T03:28:21.076Z,0.21
2019-02-25T03:30:51.484Z,0.13
2019-02-25T03:33:21.933Z,0.11
2019-02-25T03:35:52.278Z,0.12
2019-02-25T03:38:23.438Z,0.15
2019-02-25T03:40:54.941Z,0.11
2019-02-25T03:43:25.221Z,0.09
2019-02-25T03:45:56.002Z,0.05
2019-02-25T03:48:28.069Z,0.03
2019-02-25T03:51:00.030Z,0.10
2019-02-25T03:53:30.940Z,0.07
2019-02-25T03:56:03.144Z,0.01
2019-02-25T03:58:33.844Z,0.06
2019-02-25T04:01:06.014Z,0.09
2019-02-25T04:03:36.638Z,0.11
2019-02-25T04:06:06.977Z,0.07
2019-02-25T04:08:39.250Z,0.17
2019-02-25T04:11:10.945Z,0.14
2019-02-25T04:13:41.868Z,0.07
2019-02-25T04:16:12.077Z,0.01
2019-02-25T04:18:43.687Z,0.04
2019-02-25T04:21:16.217Z,0.08
2019-02-25T04:23:46.644Z,-0.01
2019-02-25T04:26:17.882Z,-0.04
2019-02-25T04:28:49.249Z,-0.16
2019-02-25T04:31:21.394Z,-0.21
2019-02-25T04:33:52.021Z,-0.24
2019-02-25T04:36:23.306Z,-0.25
2019-02-25T04:38:55.882Z,-0.23
2019-02-25T04:41:26.031Z,-0.22
2019-02-25T04:43:57.663Z,-0.27
2019-02-25T04:46:29.637Z,-0.31
2019-02-25T04:49:02.725Z,-0.26
2019-02-25T04:51:32.961Z,-0.22
2019-02-25T04:54:06.347Z,-0.20
2019-02-25T04:56:36.513Z,-0.22
2019-02-25T04:59:06.956Z,-0.22
2019-02-25T05:01:38.504Z,-0.29
2019-02-25T05:04:10.626Z,-0.33
2019-02-25T05:06:41.463Z,-0.31
2019-02-25T05:09:12.862Z,-0.39
2019-02-25T05:11:44.871Z,-0.35
2019-02-25T05:14:15.734Z,-0.39
2019-02-25T05:16:46.599Z,-0.42
2019-02-25T05:19:17.819Z,-0.42
2019-02-25T05:21:48.184Z,-0.48
2019-02-25T05:24:18.371Z,-0.48
2019-02-25T05:26:48.729Z,-0.47
2019-02-25T05:29:20.927Z,-0.44
2019-02-25T05:31:53.025Z,-0.47
2019-02-25T05:34:23.463Z,-0.48
2019-02-25T05:36:55.600Z,-0.40
2019-02-25T05:39:28.818Z,-0.43
2019-02-25T05:41:59.311Z,-0.23
2019-02-25T05:44:30.585Z,-0.14
2019-02-25T05:47:01.411Z,-0.20
2019-02-25T05:49:32.622Z,-0.22
2019-02-25T05:52:03.753Z,-0.27
2019-02-25T05:54:35.474Z,-0.34
2019-02-25T05:57:05.535Z,-0.25
2019-02-25T05:59:35.581Z,-0.10
2019-02-25T06:02:05.875Z,-0.04
2019-02-25T06:04:37.943Z,-0.08
2019-02-25T06:07:10.598Z,-0.15
2019-02-25T06:09:41.132Z,-0.19
2019-02-25T06:12:11.908Z,-0.25
2019-02-25T06:14:43.364Z,-0.27
2019-02-25T06:17:14.938Z,-0.33
2019-02-25T06:19:45.277Z,-0.29
2019-02-25T06:22:15.405Z,-0.29
2019-02-25T06:24:45.764Z,-0.27
2019-02-25T06:27:16.130Z,-0.24
2019-02-25T06:29:47.711Z,-0.18
2019-02-25T06:32:21.003Z,-0.17
2019-02-25T06:34:53.273Z,-0.15
2019-02-25T06:37:25.012Z,-0.05
2019-02-25T06:39:55.343Z,0.03
2019-02-25T06:42:25.679Z,0.19
2019-02-25T06:44:55.906Z,0.40
2019-02-25T06:47:26.357Z,1.38
2019-02-25T06:49:59.373Z,1.59
2019-02-25T06:52:29.721Z,2.13
2019-02-25T06:55:00.141Z,2.76
2019-02-25T06:57:32.327Z,3.19
2019-02-25T07:00:05.106Z,3.62
2019-02-25T07:02:37.451Z,3.94
2019-02-25T07:05:17.205Z,4.09
2019-02-25T07:08:09.806Z,4.64
2019-02-25T07:11:01.110Z,5.27
2019-02-25T07:13:49.855Z,5.79
2019-02-25T07:16:38.286Z,6.14
2019-02-25T07:19:27.037Z,6.56
2019-02-25T07:22:02.284Z,6.65
2019-02-25T07:24:53.185Z,7.15
2019-02-25T07:27:46.936Z,7.93
2019-02-25T07:30:45.918Z,8.30
2019-02-25T07:33:32.116Z,8.55
2019-02-25T07:36:21.374Z,8.52
2019-02-25T07:39:23.418Z,8.79
2019-02-25T07:42:19.026Z,10.02
2019-02-25T07:45:09.114Z,9.99
2019-02-25T07:47:48.649Z,10.45
2019-02-25T07:50:54.890Z,10.34
2019-02-25T07:53:47.465Z,11.34
2019-02-25T07:56:29.623Z,11.27
2019-02-25T07:59:25.231Z,10.63
2019-02-25T08:02:05.700Z,10.99
2019-02-25T08:04:50.963Z,11.51
2019-02-25T08:07:59.047Z,11.84
2019-02-25T08:10:38.590Z,12.81
2019-02-25T08:13:30.303Z,13.39
2019-02-25T08:16:21.713Z,13.18
2019-02-25T08:19:10.154Z,12.51
2019-02-25T08:21:58.810Z,12.35
2019-02-25T08:24:55.843Z,12.00
2019-02-25T08:27:36.811Z,12.67
2019-02-25T08:30:26.067Z,12.75
2019-02-25T08:33:13.286Z,12.93
2019-02-25T08:37:02.657Z,13.11
2019-02-25T08:39:42.837Z,13.11
2019-02-25T08:42:42.157Z,12.99
2019-02-25T08:45:33.876Z,13.92
2019-02-25T08:48:23.651Z,14.01
2019-02-25T08:50:56.270Z,14.63
2019-02-25T08:53:27.670Z,14.75
2019-02-25T08:55:58.447Z,14.47
2019-02-25T08:58:30.585Z,14.55
2019-02-25T09:01:01.019Z,14.43
2019-02-25T09:03:31.345Z,14.16
2019-02-25T09:06:02.500Z,13.90
2019-02-25T09:08:33.905Z,13.71
2019-02-25T09:11:13.698Z,14.00
2019-02-25T09:13:39.416Z,14.38
2019-02-25T09:16:09.945Z,14.31
2019-02-25T09:18:40.381Z,14.47
2019-02-25T09:21:12.244Z,14.28
2019-02-25T09:23:45.136Z,14.40
2019-02-25T09:26:16.433Z,14.49
2019-02-25T09:28:46.707Z,14.34
2019-02-25T09:31:17.034Z,14.11
2019-02-25T09:33:48.388Z,13.88
2019-02-25T09:36:20.333Z,13.53
2019-02-25T09:38:50.887Z,13.29
2019-02-25T09:41:29.716Z,13.35
2019-02-25T09:43:54.099Z,13.35
2019-02-25T09:46:25.555Z,13.44
2019-02-25T09:48:55.784Z,13.57
2019-02-25T09:51:26.465Z,13.45
2019-02-25T09:53:57.075Z,13.18
2019-02-25T09:56:28.528Z,13.13
2019-02-25T09:59:00.165Z,13.41
2019-02-25T10:01:30.602Z,13.42
2019-02-25T10:04:01.040Z,13.82
2019-02-25T10:06:34.221Z,14.03
2019-02-25T10:09:06.917Z,14.27
2019-02-25T10:11:38.768Z,14.19
2019-02-25T10:14:11.790Z,14.13
2019-02-25T10:16:42.223Z,14.15
2019-02-25T10:19:12.627Z,14.25
2019-02-25T10:21:42.918Z,14.11
2019-02-25T10:24:14.735Z,14.45
2019-02-25T10:26:45.963Z,14.03
2019-02-25T10:29:17.327Z,13.58
2019-02-25T10:31:48.068Z,13.66
2019-02-25T10:34:19.399Z,13.78
2019-02-25T10:36:52.470Z,14.04
2019-02-25T10:39:24.031Z,14.08
2019-02-25T10:41:59.495Z,13.89
2019-02-25T10:44:31.933Z,14.27
2019-02-25T10:47:03.852Z,14.28
2019-02-25T10:49:35.872Z,14.38
2019-02-25T10:52:08.817Z,14.52
2019-02-25T10:54:40.437Z,14.35
2019-02-25T10:57:16.303Z,14.52
2019-02-25T10:59:47.867Z,14.52
2019-02-25T11:02:19.528Z,14.40
2019-02-25T11:04:51.423Z,14.06
2019-02-25T11:07:23.361Z,13.85
2019-02-25T11:10:04.416Z,14.04
2019-02-25T11:12:35.743Z,13.93
2019-02-25T11:15:09.091Z,14.34
2019-02-25T11:17:42.504Z,14.74
2019-02-25T11:20:13.303Z,14.64
2019-02-25T11:22:45.701Z,14.64
2019-02-25T11:25:16.164Z,14.71
2019-02-25T11:27:47.478Z,14.74
2019-02-25T11:30:21.119Z,14.68
2019-02-25T11:32:53.945Z,14.55
2019-02-25T11:35:24.706Z,14.58
2019-02-25T11:37:58.486Z,14.60
2019-02-25T11:40:29.025Z,14.70
2019-02-25T11:42:59.601Z,14.59
2019-02-25T11:45:33.789Z,14.69
2019-02-25T11:48:04.079Z,14.69
2019-02-25T11:50:34.511Z,14.58
2019-02-25T11:53:06.711Z,14.36
2019-02-25T11:55:37.457Z,14.42
2019-02-25T11:58:08.909Z,14.54
2019-02-25T12:00:39.930Z,14.50
2019-02-25T12:03:15.245Z,14.68
2019-02-25T12:05:45.750Z,14.45
2019-02-25T12:08:19.123Z,14.44
2019-02-25T12:10:49.759Z,14.57
2019-02-25T12:13:19.957Z,14.50
2019-02-25T12:15:50.105Z,14.36
2019-02-25T12:18:21.419Z,14.52
2019-02-25T12:20:52.988Z,14.39
2019-02-25T12:23:27.752Z,14.51
2019-02-25T12:25:58.494Z,14.64
2019-02-25T12:28:30.241Z,14.87
2019-02-25T12:31:00.894Z,14.88
2019-02-25T12:33:31.188Z,14.97
2019-02-25T12:36:01.745Z,14.88
2019-02-25T12:38:32.564Z,14.80
2019-02-25T12:41:03.120Z,14.80
2019-02-25T12:43:33.560Z,14.53
2019-02-25T12:46:04.283Z,14.60
2019-02-25T12:48:36.019Z,14.55
2019-02-25T12:51:07.499Z,14.60
2019-02-25T12:53:37.951Z,14.64
2019-02-25T12:56:12.718Z,14.64
2019-02-25T12:58:43.291Z,14.63
2019-02-25T13:01:14.523Z,14.62
2019-02-25T13:03:46.309Z,14.61
2019-02-25T13:06:17.042Z,14.70
2019-02-25T13:08:48.494Z,14.98
2019-02-25T13:11:18.822Z,14.90
2019-02-25T13:13:49.332Z,14.92
2019-02-25T13:16:19.789Z,14.84
2019-02-25T13:18:51.457Z,14.95
2019-02-25T13:21:21.902Z,14.85
2019-02-25T13:23:54.700Z,14.74
2019-02-25T13:26:27.190Z,14.79
2019-02-25T13:28:58.142Z,14.73
2019-02-25T13:31:29.948Z,14.60
2019-02-25T13:34:02.321Z,14.52
2019-02-25T13:36:32.956Z,14.49
2019-02-25T13:39:06.516Z,14.51
2019-02-25T13:41:37.015Z,14.61
2019-02-25T13:44:07.532Z,14.58
2019-02-25T13:46:40.176Z,14.56
2019-02-25T13:49:12.569Z,14.61
2019-02-25T13:51:44.962Z,14.63
2019-02-25T13:54:15.386Z,14.64
2019-02-25T13:56:50.327Z,14.64
2019-02-25T13:59:22.787Z,14.69
2019-02-25T14:01:53.188Z,14.79
2019-02-25T14:04:23.571Z,14.75
2019-02-25T14:06:54.962Z,14.70
2019-02-25T14:09:25.220Z,14.73
2019-02-25T14:11:56.896Z,14.81
2019-02-25T14:14:29.149Z,14.70
2019-02-25T14:16:59.707Z,14.68
2019-02-25T14:19:30.510Z,14.69
2019-02-25T14:22:01.284Z,14.76
2019-02-25T14:24:32.675Z,14.66
2019-02-25T14:27:02.983Z,14.71
2019-02-25T14:29:33.587Z,14.68
2019-02-25T14:32:05.088Z,14.72
2019-02-25T14:34:37.239Z,14.76
2019-02-25T14:37:09.602Z,14.74
2019-02-25T14:39:40.752Z,14.80
2019-02-25T14:42:13.535Z,14.83
2019-02-25T14:44:49.984Z,14.83
2019-02-25T14:47:25.790Z,14.77
2019-02-25T14:49:55.364Z,14.75
2019-02-25T14:52:29.387Z,14.71
2019-02-25T14:55:01.558Z,14.77
2019-02-25T14:57:35.621Z,14.76
2019-02-25T15:00:10.383Z,14.73
2019-02-25T15:02:41.369Z,14.70
2019-02-25T15:05:15.030Z,14.63
2019-02-25T15:07:48.681Z,14.61
2019-02-25T15:10:19.673Z,14.61
2019-02-25T15:12:58.661Z,14.60
2019-02-25T15:15:26.789Z,14.68
2019-02-25T15:17:57.952Z,14.73
2019-02-25T15:20:28.964Z,14.60
2019-02-25T15:22:59.487Z,14.60
2019-02-25T15:25:33.957Z,14.54
2019-02-25T15:28:09.351Z,14.48
2019-02-25T15:30:39.671Z,14.51
2019-02-25T15:33:10.248Z,14.39
2019-02-25T15:35:43.381Z,14.37
2019-02-25T15:38:14.174Z,14.32
2019-02-25T15:40:44.604Z,14.21
2019-02-25T15:43:18.147Z,14.10
2019-02-25T15:45:48.177Z,14.00
2019-02-25T15:48:20.290Z,14.00
2019-02-25T15:50:55.593Z,13.89
2019-02-25T15:53:26.961Z,13.76
2019-02-25T15:56:01.341Z,13.71
2019-02-25T15:58:32.673Z,13.63
2019-02-25T16:01:05.985Z,13.51
2019-02-25T16:03:37.142Z,13.52
2019-02-25T16:06:11.671Z,13.33
2019-02-25T16:08:45.294Z,13.16
2019-02-25T16:11:20.721Z,13.02
2019-02-25T16:13:55.729Z,12.93
2019-02-25T16:16:26.996Z,12.86
2019-02-25T16:18:58.370Z,12.77
2019-02-25T16:21:31.715Z,12.63
2019-02-25T16:24:04.826Z,12.48
2019-02-25T16:26:36.110Z,12.43
2019-02-25T16:29:09.112Z,12.29
2019-02-25T16:31:41.137Z,12.18
2019-02-25T16:34:14.333Z,12.07
2019-02-25T16:36:49.691Z,12.08
2019-02-25T16:39:19.154Z,11.89
2019-02-25T16:41:51.437Z,11.84
2019-02-25T16:44:21.853Z,11.70
2019-02-25T16:46:54.059Z,11.60
2019-02-25T16:49:24.773Z,11.51
2019-02-25T16:52:00.349Z,11.41
2019-02-25T16:54:31.526Z,11.32
2019-02-25T16:57:03.861Z,11.13
2019-02-25T16:59:35.517Z,10.98
2019-02-25T17:02:07.034Z,10.85
2019-02-25T17:04:38.930Z,10.72
2019-02-25T17:07:11.780Z,10.62
2019-02-25T17:09:44.209Z,10.46
2019-02-25T17:12:15.935Z,10.30
2019-02-25T17:14:46.925Z,10.20
2019-02-25T17:17:17.331Z,10.08
2019-02-25T17:19:48.057Z,9.95
2019-02-25T17:22:20.837Z,9.81
2019-02-25T17:24:54.287Z,9.73
2019-02-25T17:27:28.564Z,9.64
2019-02-25T17:29:59.863Z,9.52
2019-02-25T17:32:31.470Z,9.44
2019-02-25T17:35:05.238Z,9.31
2019-02-25T17:37:37.786Z,9.23
2019-02-25T17:40:12.923Z,9.11
2019-02-25T17:42:44.950Z,9.01
2019-02-25T17:45:18.420Z,8.98
2019-02-25T17:47:48.789Z,8.94
2019-02-25T17:50:19.833Z,8.94
2019-02-25T17:52:50.367Z,8.90
2019-02-25T17:55:20.900Z,8.91
2019-02-25T17:57:52.008Z,8.85
2019-02-25T18:00:49.830Z,8.83
2019-02-25T18:03:21.683Z,8.77
2019-02-25T18:05:56.297Z,8.65
2019-02-25T18:08:27.955Z,8.57
2019-02-25T18:10:59.928Z,8.48
2019-02-25T18:13:32.451Z,8.39
2019-02-25T18:16:03.567Z,8.26
2019-02-25T18:18:36.613Z,8.17
2019-02-25T18:21:08.419Z,8.06
2019-02-25T18:23:39.852Z,7.95
2019-02-25T18:26:12.427Z,7.90
2019-02-25T18:28:43.841Z,7.73
2019-02-25T18:31:20.249Z,7.64
2019-02-25T18:33:52.738Z,7.50
2019-02-25T18:36:26.477Z,7.36
2019-02-25T18:38:56.780Z,7.28
2019-02-25T18:41:31.395Z,7.21
2019-02-25T18:44:01.468Z,7.17
2019-02-25T18:46:32.355Z,7.13
2019-02-25T18:49:05.644Z,7.07
2019-02-25T18:51:39.462Z,7.01
2019-02-25T18:54:10.032Z,6.95
2019-02-25T18:56:43.004Z,6.85
2019-02-25T18:59:17.746Z,6.78
2019-02-25T19:01:51.456Z,6.74
2019-02-25T19:04:22.457Z,6.70
2019-02-25T19:06:53.215Z,6.69
2019-02-25T19:09:26.038Z,6.62
2019-02-25T19:11:58.658Z,6.59
2019-02-25T19:14:31.539Z,6.57
2019-02-25T19:17:06.524Z,6.53
2019-02-25T19:19:38.561Z,6.50
2019-02-25T19:22:12.646Z,6.40
2019-02-25T19:24:47.234Z,6.28
2019-02-25T19:27:18.035Z,6.19
2019-02-25T19:29:54.559Z,6.13
2019-02-25T19:32:26.874Z,6.06
2019-02-25T19:35:01.901Z,5.99
2019-02-25T19:37:38.253Z,5.92
2019-02-25T19:40:13.950Z,5.79
2019-02-25T19:42:51.308Z,5.69
2019-02-25T19:45:21.166Z,6.01
2019-02-25T19:47:52.480Z,5.79
2019-02-25T19:50:25.933Z,5.65
2019-02-25T19:53:02.491Z,5.52
2019-02-25T19:55:33.772Z,5.43
2019-02-25T19:58:04.480Z,5.41
2019-02-25T20:00:35.950Z,5.43
2019-02-25T20:03:07.533Z,5.47
2019-02-25T20:05:43.313Z,5.43
2019-02-25T20:08:15.788Z,5.40
2019-02-25T20:10:49.821Z,5.37
2019-02-25T20:13:22.709Z,5.37
2019-02-25T20:15:56.547Z,5.31
2019-02-25T20:18:27.019Z,5.22
2019-02-25T20:20:59.368Z,5.18
2019-02-25T20:23:31.000Z,5.12
2019-02-25T20:26:02.739Z,5.03
2019-02-25T20:28:35.830Z,4.98
2019-02-25T20:31:08.347Z,4.90
2019-02-25T20:33:39.173Z,4.85
2019-02-25T20:36:09.930Z,4.84
2019-02-25T20:38:40.556Z,4.85
2019-02-25T20:41:16.036Z,4.85
2019-02-25T20:43:47.229Z,4.85
2019-02-25T20:46:23.927Z,4.81
2019-02-25T20:48:56.075Z,4.73
2019-02-25T20:51:29.819Z,4.63
2019-02-25T20:54:02.084Z,4.55
2019-02-25T20:56:33.294Z,4.50
2019-02-25T20:59:06.169Z,4.44
2019-02-25T21:01:42.321Z,4.39
2019-02-25T21:04:13.511Z,4.36
2019-02-25T21:06:44.506Z,4.35
2019-02-25T21:09:15.675Z,4.26
2019-02-25T21:11:45.832Z,4.19
2019-02-25T21:14:16.786Z,4.15
2019-02-25T21:16:48.966Z,4.04
2019-02-25T21:19:20.064Z,4.00
2019-02-25T21:21:55.061Z,3.95
2019-02-25T21:24:24.613Z,3.92
2019-02-25T21:26:59.613Z,3.86
2019-02-25T21:29:31.852Z,3.86
2019-02-25T21:32:05.851Z,3.84
2019-02-25T21:34:36.238Z,3.70
2019-02-25T21:37:06.282Z,3.79
2019-02-25T21:39:38.238Z,3.71
2019-02-25T21:42:10.806Z,3.66
2019-02-25T21:44:40.887Z,3.69
2019-02-25T21:47:11.583Z,3.76
2019-02-25T21:49:41.887Z,3.65
2019-02-25T21:52:15.422Z,3.52
2019-02-25T21:54:46.807Z,3.48
2019-02-25T21:57:17.280Z,3.58
2019-02-25T21:59:50.364Z,3.67
2019-02-25T22:02:22.228Z,3.65
2019-02-25T22:04:53.965Z,3.54
2019-02-25T22:07:26.765Z,3.45
2019-02-25T22:09:56.697Z,3.33
2019-02-25T22:12:28.900Z,3.26
2019-02-25T22:14:59.092Z,3.19
2019-02-25T22:17:29.422Z,3.07
2019-02-25T22:19:59.440Z,3.02
2019-02-25T22:22:31.089Z,2.99
2019-02-25T22:25:05.925Z,2.92
2019-02-25T22:27:36.851Z,2.88
2019-02-25T22:30:09.848Z,2.87
2019-02-25T22:32:40.796Z,2.82
2019-02-25T22:35:14.903Z,2.83
2019-02-25T22:37:49.349Z,2.81
2019-02-25T22:40:17.553Z,2.76
2019-02-25T22:42:50.049Z,2.78
2019-02-25T22:45:19.713Z,2.74
2019-02-25T22:47:49.737Z,2.74
2019-02-25T22:50:19.760Z,2.73
2019-02-25T22:52:55.610Z,2.74
2019-02-25T22:55:22.688Z,2.76
2019-02-25T22:57:54.084Z,2.74
2019-02-25T23:00:33.349Z,2.74
2019-02-25T23:03:04.603Z,2.75
2019-02-25T23:05:34.548Z,2.79
2019-02-25T23:08:04.539Z,2.80
2019-02-25T23:10:38.039Z,2.77
2019-02-25T23:13:06.731Z,2.72
2019-02-25T23:15:36.857Z,2.69
2019-02-25T23:18:10.032Z,2.69
2019-02-25T23:20:38.843Z,2.65
2019-02-25T23:23:08.782Z,2.64
2019-02-25T23:25:38.784Z,2.65
2019-02-25T23:28:09.212Z,2.66
2019-02-25T23:30:40.726Z,2.61
2019-02-25T23:33:14.470Z,2.54
2019-02-25T23:35:46.971Z,2.47
2019-02-25T23:38:17.308Z,2.44
2019-02-25T23:40:49.453Z,2.45
2019-02-25T23:43:19.917Z,2.45
2019-02-25T23:45:50.321Z,2.44
2019-02-25T23:48:21.565Z,2.45
2019-02-25T23:50:54.945Z,2.42
2019-02-25T23:53:28.234Z,2.38
2019-02-25T23:55:58.769Z,2.38
2019-02-25T23:58:29.220Z,2.31
